createdAt,value
2016-08-04T00:00:00.574Z,83.7
2016-08-04T00:00:11.088Z,83.7
2016-08-04T00:00:21.602Z,84.1
2016-08-04T00:00:32.842Z,83.8
2016-08-04T00:00:43.354Z,83.9
2016-08-04T00:00:54.593Z,84.2
2016-08-04T00:01:05.841Z,84.1
2016-08-04T00:01:17.082Z,84.1
2016-08-04T00:01:27.594Z,83.9
2016-08-04T00:01:38.837Z,83.8
2016-08-04T00:01:50.076Z,84
2016-08-04T00:02:01.319Z,83.9
2016-08-04T00:02:12.564Z,84
2016-08-04T00:02:23.806Z,83.7
2016-08-04T00:02:35.043Z,83.7
2016-08-04T00:02:45.554Z,83.5
2016-08-04T00:02:56.794Z,83.7
2016-08-04T00:03:08.038Z,83.6
2016-08-04T00:03:19.278Z,83.7
2016-08-04T00:03:30.524Z,83.8
2016-08-04T00:03:41.763Z,83.8
2016-08-04T00:03:53.004Z,83.7
2016-08-04T00:04:04.248Z,83.7
2016-08-04T00:04:15.492Z,83.9
2016-08-04T00:04:26.732Z,83.9
2016-08-04T00:04:49.927Z,83.9
2016-08-04T00:05:01.171Z,83.8
2016-08-04T00:05:12.414Z,83.9
2016-08-04T00:05:23.659Z,83.8
2016-08-04T00:05:34.895Z,84
2016-08-04T00:05:46.137Z,83.9
2016-08-04T00:05:57.379Z,84.1
2016-08-04T00:06:08.620Z,84.2
2016-08-04T00:06:19.858Z,83.9
2016-08-04T00:06:31.099Z,83.8
2016-08-04T00:06:42.341Z,84.2
2016-08-04T00:06:53.583Z,83.9
2016-08-04T00:07:04.829Z,83.9
2016-08-04T00:07:16.074Z,84
2016-08-04T00:07:26.583Z,83.8
2016-08-04T00:07:37.820Z,84.2
2016-08-04T00:07:48.326Z,83.9
2016-08-04T00:07:59.564Z,83.7
2016-08-04T00:08:10.806Z,84.1
2016-08-04T00:08:21.313Z,83.7
2016-08-04T00:08:32.555Z,83.5
2016-08-04T00:08:43.792Z,83.7
2016-08-04T00:08:55.034Z,83.4
2016-08-04T00:09:06.272Z,83.4
2016-08-04T00:09:17.515Z,83.9
2016-08-04T00:09:28.758Z,83.8
2016-08-04T00:09:38.543Z,83.9
2016-08-04T00:09:49.794Z,83.9
2016-08-04T00:10:02.098Z,83.7
2016-08-04T00:10:12.615Z,84.1
2016-08-04T00:10:25.654Z,84
2016-08-04T00:10:36.896Z,83.6
2016-08-04T00:10:48.141Z,83.6
2016-08-04T00:10:59.389Z,83.8
2016-08-04T00:11:10.634Z,83.7
2016-08-04T00:11:21.892Z,83.6
2016-08-04T00:11:33.136Z,84
2016-08-04T00:11:44.375Z,83.8
2016-08-04T00:11:55.617Z,84.1
2016-08-04T00:12:06.864Z,83.9
2016-08-04T00:12:18.098Z,83.9
2016-08-04T00:12:28.606Z,83.9
2016-08-04T00:12:39.841Z,83.9
2016-08-04T00:12:51.078Z,83.5
2016-08-04T00:13:02.333Z,83.8
2016-08-04T00:13:13.574Z,83.4
2016-08-04T00:13:24.815Z,84.2
2016-08-04T00:13:36.050Z,84
2016-08-04T00:13:47.297Z,83.9
2016-08-04T00:13:58.537Z,83.9
2016-08-04T00:14:09.777Z,83.8
2016-08-04T00:14:21.019Z,83.9
2016-08-04T00:14:31.538Z,83.8
2016-08-04T00:14:42.780Z,83.8
2016-08-04T00:14:54.021Z,83.9
2016-08-04T00:15:05.266Z,83.9
2016-08-04T00:15:16.500Z,83.9
2016-08-04T00:15:27.745Z,83.9
2016-08-04T00:15:38.253Z,83.9
2016-08-04T00:15:49.500Z,83.8
2016-08-04T00:16:00.739Z,84
2016-08-04T00:16:11.988Z,83.9
2016-08-04T00:16:23.226Z,83.8
2016-08-04T00:16:33.738Z,83.9
2016-08-04T00:16:44.978Z,84
2016-08-04T00:16:56.218Z,83.9
2016-08-04T00:17:07.457Z,83.7
2016-08-04T00:17:18.695Z,83.9
2016-08-04T00:17:29.935Z,83.9
2016-08-04T00:17:41.181Z,83.8
2016-08-04T00:17:52.431Z,83.8
2016-08-04T00:18:03.669Z,83.8
2016-08-04T00:18:14.181Z,83.8
2016-08-04T00:18:24.685Z,83.9
2016-08-04T00:18:35.189Z,84
2016-08-04T00:18:46.431Z,83.9
2016-08-04T00:18:57.679Z,83.9
2016-08-04T00:19:08.921Z,83.8
2016-08-04T00:19:19.432Z,83.8
2016-08-04T00:19:42.070Z,83.9
2016-08-04T00:20:05.275Z,83.9
2016-08-04T00:20:16.515Z,84
2016-08-04T00:20:27.755Z,83.9
2016-08-04T00:20:38.997Z,84.1
2016-08-04T00:20:50.241Z,83.9
2016-08-04T00:21:01.483Z,83.9
2016-08-04T00:21:12.723Z,83.6
2016-08-04T00:21:23.965Z,84
2016-08-04T00:21:35.208Z,84
2016-08-04T00:21:46.449Z,84.1
2016-08-04T00:21:57.687Z,83.9
2016-08-04T00:22:08.929Z,83.9
2016-08-04T00:22:20.167Z,83.9
2016-08-04T00:22:31.407Z,83.9
2016-08-04T00:22:42.650Z,83.9
2016-08-04T00:22:53.898Z,83.9
2016-08-04T00:23:05.140Z,83.4
2016-08-04T00:23:15.657Z,83.8
2016-08-04T00:23:26.899Z,83.6
2016-08-04T00:23:38.139Z,83.9
2016-08-04T00:23:49.383Z,84
2016-08-04T00:24:00.630Z,83.9
2016-08-04T00:24:11.868Z,83.8
2016-08-04T00:24:23.110Z,84
2016-08-04T00:24:34.348Z,84.1
2016-08-04T00:24:45.591Z,83.9
2016-08-04T00:24:56.839Z,83.9
2016-08-04T00:25:08.079Z,83.9
2016-08-04T00:25:19.320Z,83.8
2016-08-04T00:25:29.839Z,83.9
2016-08-04T00:25:41.073Z,83.7
2016-08-04T00:25:51.578Z,83.9
2016-08-04T00:26:02.819Z,83.9
2016-08-04T00:26:14.062Z,83.9
2016-08-04T00:26:25.307Z,84
2016-08-04T00:26:35.815Z,83.7
2016-08-04T00:26:47.056Z,83.8
2016-08-04T00:26:58.296Z,84
2016-08-04T00:27:09.537Z,84.1
2016-08-04T00:27:20.775Z,84
2016-08-04T00:27:32.035Z,84.1
2016-08-04T00:27:43.272Z,83.8
2016-08-04T00:27:54.525Z,83.8
2016-08-04T00:28:05.768Z,83.9
2016-08-04T00:28:17.004Z,83.9
2016-08-04T00:28:28.246Z,83.8
2016-08-04T00:28:39.484Z,84.1
2016-08-04T00:28:50.726Z,83.9
2016-08-04T00:29:01.244Z,83.4
2016-08-04T00:29:12.484Z,84
2016-08-04T00:29:23.727Z,84
2016-08-04T00:29:34.974Z,84
2016-08-04T00:29:46.222Z,83.6
2016-08-04T00:29:57.470Z,83.9
2016-08-04T00:30:08.707Z,83.4
2016-08-04T00:30:19.950Z,83.7
2016-08-04T00:30:31.197Z,83.6
2016-08-04T00:30:42.435Z,83.7
2016-08-04T00:30:53.674Z,83.7
2016-08-04T00:31:04.914Z,83.6
2016-08-04T00:31:15.431Z,83.7
2016-08-04T00:31:26.672Z,83.8
2016-08-04T00:31:37.191Z,83.7
2016-08-04T00:31:50.225Z,83.7
2016-08-04T00:32:01.466Z,83.5
2016-08-04T00:32:12.710Z,83.5
2016-08-04T00:32:23.954Z,83.6
2016-08-04T00:32:35.196Z,83.5
2016-08-04T00:32:46.438Z,83.4
2016-08-04T00:32:57.680Z,83.8
2016-08-04T00:33:08.930Z,83.6
2016-08-04T00:33:20.164Z,83.7
2016-08-04T00:33:31.399Z,83.7
2016-08-04T00:33:41.923Z,83.7
2016-08-04T00:33:53.169Z,83.7
2016-08-04T00:34:04.412Z,83.8
2016-08-04T00:34:15.655Z,83.5
2016-08-04T00:34:26.179Z,83.2
2016-08-04T00:34:49.380Z,83.6
2016-08-04T00:35:00.621Z,83.7
2016-08-04T00:35:11.856Z,83.5
2016-08-04T00:35:23.100Z,83.7
2016-08-04T00:35:33.617Z,83.5
2016-08-04T00:35:44.128Z,83.7
2016-08-04T00:35:55.365Z,83.7
2016-08-04T00:36:06.601Z,83.7
2016-08-04T00:36:17.844Z,83.2
2016-08-04T00:36:29.086Z,83.5
2016-08-04T00:36:40.337Z,83.4
2016-08-04T00:36:51.585Z,83.5
2016-08-04T00:37:02.086Z,83.2
2016-08-04T00:37:15.114Z,83.5
2016-08-04T00:37:26.360Z,83.5
2016-08-04T00:37:36.875Z,83.6
2016-08-04T00:37:48.117Z,83.7
2016-08-04T00:37:58.631Z,83.6
2016-08-04T00:38:09.870Z,83.6
2016-08-04T00:38:21.120Z,83.5
2016-08-04T00:38:32.362Z,83.6
2016-08-04T00:38:43.603Z,83.5
2016-08-04T00:38:54.848Z,83.4
2016-08-04T00:39:06.089Z,83.4
2016-08-04T00:39:16.604Z,83.5
2016-08-04T00:39:27.117Z,83.5
2016-08-04T00:39:38.366Z,83.8
2016-08-04T00:39:49.605Z,83.5
2016-08-04T00:40:00.845Z,83.5
2016-08-04T00:40:12.090Z,83.2
2016-08-04T00:40:23.326Z,83.2
2016-08-04T00:40:33.835Z,83.5
2016-08-04T00:40:45.083Z,83.6
2016-08-04T00:40:56.331Z,83.5
2016-08-04T00:41:07.565Z,83.4
2016-08-04T00:41:18.821Z,83.4
2016-08-04T00:41:30.056Z,83.4
2016-08-04T00:41:41.293Z,83.4
2016-08-04T00:41:52.536Z,83.2
2016-08-04T00:42:03.783Z,83.4
2016-08-04T00:42:15.023Z,83.5
2016-08-04T00:42:26.268Z,83.8
2016-08-04T00:42:37.507Z,83.5
2016-08-04T00:42:48.748Z,83.6
2016-08-04T00:43:00.001Z,83.2
2016-08-04T00:43:11.244Z,83.5
2016-08-04T00:43:22.490Z,83.5
2016-08-04T00:43:33.726Z,83.7
2016-08-04T00:43:44.967Z,83.5
2016-08-04T00:43:55.478Z,83.4
2016-08-04T00:44:06.719Z,83.2
2016-08-04T00:44:17.962Z,83.5
2016-08-04T00:44:29.198Z,83.1
2016-08-04T00:44:40.439Z,83.1
2016-08-04T00:44:51.679Z,83.1
2016-08-04T00:45:02.931Z,83
2016-08-04T00:45:14.165Z,82.9
2016-08-04T00:45:25.410Z,83.2
2016-08-04T00:45:36.656Z,83.4
2016-08-04T00:45:47.902Z,83.2
2016-08-04T00:45:59.141Z,83.5
2016-08-04T00:46:10.388Z,83.6
2016-08-04T00:46:21.632Z,83.2
2016-08-04T00:46:32.878Z,83.1
2016-08-04T00:46:44.121Z,83
2016-08-04T00:46:55.359Z,83.2
2016-08-04T00:47:06.603Z,83.5
2016-08-04T00:47:17.838Z,83.2
2016-08-04T00:47:29.080Z,83.4
2016-08-04T00:47:41.387Z,82.9
2016-08-04T00:47:52.630Z,83.4
2016-08-04T00:48:03.868Z,83.5
2016-08-04T00:48:15.111Z,83.7
2016-08-04T00:48:26.353Z,83.5
2016-08-04T00:48:36.866Z,83.7
2016-08-04T00:48:48.100Z,83.5
2016-08-04T00:48:59.345Z,83.6
2016-08-04T00:49:09.857Z,83.5
2016-08-04T00:49:21.094Z,83.7
2016-08-04T00:49:44.292Z,83.8
2016-08-04T00:49:55.537Z,83.6
2016-08-04T00:50:06.777Z,83.7
2016-08-04T00:50:18.020Z,83.4
2016-08-04T00:50:28.538Z,83.4
2016-08-04T00:50:39.047Z,83.5
2016-08-04T00:50:50.291Z,83.4
2016-08-04T00:51:01.535Z,83.6
2016-08-04T00:51:12.773Z,83.6
2016-08-04T00:51:24.022Z,83.6
2016-08-04T00:51:34.522Z,83.6
2016-08-04T00:51:45.761Z,83.6
2016-08-04T00:51:57.007Z,83.7
2016-08-04T00:52:07.523Z,83.7
2016-08-04T00:52:18.038Z,83.6
2016-08-04T00:52:29.281Z,83.5
2016-08-04T00:52:40.523Z,83.7
2016-08-04T00:52:51.761Z,83.5
2016-08-04T00:53:02.999Z,83.1
2016-08-04T00:53:14.236Z,83.8
2016-08-04T00:53:25.486Z,83.5
2016-08-04T00:53:36.727Z,83.4
2016-08-04T00:53:47.241Z,83.7
2016-08-04T00:53:58.485Z,83.5
2016-08-04T00:54:09.726Z,83.6
2016-08-04T00:54:20.968Z,83.8
2016-08-04T00:54:32.213Z,83.3
2016-08-04T00:54:43.451Z,83.2
2016-08-04T00:54:54.694Z,83.4
2016-08-04T00:55:05.951Z,83.2
2016-08-04T00:55:16.454Z,83.5
2016-08-04T00:55:27.696Z,83.7
2016-08-04T00:55:38.211Z,83.8
2016-08-04T00:55:49.455Z,83.6
2016-08-04T00:56:00.695Z,83.6
2016-08-04T00:56:11.940Z,83.7
2016-08-04T00:56:23.182Z,83.7
2016-08-04T00:56:34.428Z,83.4
2016-08-04T00:56:45.663Z,83.4
2016-08-04T00:56:56.903Z,83.5
2016-08-04T00:57:08.140Z,83.7
2016-08-04T00:57:19.383Z,83.5
2016-08-04T00:57:30.624Z,83.7
2016-08-04T00:57:41.868Z,83.6
2016-08-04T00:57:53.108Z,83.5
2016-08-04T00:58:04.349Z,83.6
2016-08-04T00:58:15.592Z,83.8
2016-08-04T00:58:26.827Z,83.7
2016-08-04T00:58:38.072Z,83.5
2016-08-04T00:58:49.313Z,83.7
2016-08-04T00:59:00.555Z,83.8
2016-08-04T00:59:11.791Z,83.8
2016-08-04T00:59:22.310Z,83.6
2016-08-04T00:59:32.812Z,83.6
2016-08-04T00:59:44.053Z,83.4
2016-08-04T00:59:55.293Z,83.4
2016-08-04T01:00:06.545Z,83.7
2016-08-04T01:00:17.786Z,83.7
2016-08-04T01:00:29.028Z,83.7
2016-08-04T01:00:40.267Z,83.5
2016-08-04T01:00:51.518Z,83.5
2016-08-04T01:01:02.754Z,83.6
2016-08-04T01:01:13.994Z,83.7
2016-08-04T01:01:24.503Z,83.6
2016-08-04T01:01:35.741Z,83.4
2016-08-04T01:01:46.985Z,83.4
2016-08-04T01:01:58.228Z,83.7
2016-08-04T01:02:09.472Z,83.5
2016-08-04T01:02:19.984Z,83.2
2016-08-04T01:02:31.223Z,83.4
2016-08-04T01:02:42.471Z,83.5
2016-08-04T01:02:53.712Z,83.5
2016-08-04T01:03:04.953Z,83.5
2016-08-04T01:03:15.474Z,83.8
2016-08-04T01:03:28.504Z,83.7
2016-08-04T01:03:39.742Z,83.4
2016-08-04T01:03:50.983Z,83.5
2016-08-04T01:04:01.498Z,83.7
2016-08-04T01:04:12.741Z,83.6
2016-08-04T01:04:23.247Z,83.4
2016-08-04T01:04:34.491Z,83.5
2016-08-04T01:04:55.163Z,83.2
2016-08-04T01:05:05.674Z,83.2
2016-08-04T01:05:16.922Z,83.3
2016-08-04T01:05:28.162Z,83.3
2016-08-04T01:05:39.413Z,83.5
2016-08-04T01:05:50.661Z,83.5
2016-08-04T01:06:01.905Z,83.4
2016-08-04T01:06:13.149Z,83.2
2016-08-04T01:06:24.385Z,83.1
2016-08-04T01:06:35.625Z,83
2016-08-04T01:06:46.139Z,83.2
2016-08-04T01:06:57.379Z,83.3
2016-08-04T01:07:08.622Z,83.3
2016-08-04T01:07:19.870Z,83.3
2016-08-04T01:07:31.108Z,83.1
2016-08-04T01:07:42.351Z,82.9
2016-08-04T01:07:53.590Z,82.9
2016-08-04T01:08:04.828Z,83.2
2016-08-04T01:08:16.072Z,83.2
2016-08-04T01:08:27.316Z,83.4
2016-08-04T01:08:37.827Z,83
2016-08-04T01:08:49.072Z,83.2
2016-08-04T01:09:00.319Z,83.2
2016-08-04T01:09:11.567Z,83.5
2016-08-04T01:09:22.804Z,83.3
2016-08-04T01:09:34.047Z,83.4
2016-08-04T01:09:45.286Z,83.7
2016-08-04T01:09:56.525Z,83.4
2016-08-04T01:10:07.763Z,83.5
2016-08-04T01:10:19.012Z,83.5
2016-08-04T01:10:30.249Z,83.5
2016-08-04T01:10:40.761Z,83.4
2016-08-04T01:10:52.014Z,83.4
2016-08-04T01:11:03.246Z,83.2
2016-08-04T01:11:14.486Z,83.5
2016-08-04T01:11:25.722Z,83.4
2016-08-04T01:11:36.968Z,83.3
2016-08-04T01:11:48.204Z,83.5
2016-08-04T01:11:59.447Z,83.2
2016-08-04T01:12:10.687Z,83.3
2016-08-04T01:12:21.927Z,82.9
2016-08-04T01:12:33.168Z,83.4
2016-08-04T01:12:44.406Z,83.2
2016-08-04T01:12:55.651Z,83
2016-08-04T01:13:06.891Z,82.9
2016-08-04T01:13:17.407Z,83.4
2016-08-04T01:13:28.646Z,83.4
2016-08-04T01:13:39.892Z,83
2016-08-04T01:13:51.133Z,83.1
2016-08-04T01:14:02.371Z,83
2016-08-04T01:14:12.880Z,82.9
2016-08-04T01:14:24.121Z,83
2016-08-04T01:14:35.364Z,82.9
2016-08-04T01:14:46.622Z,83.2
2016-08-04T01:14:57.868Z,82.9
2016-08-04T01:15:09.108Z,83
2016-08-04T01:15:20.348Z,82.9
2016-08-04T01:15:31.584Z,83.2
2016-08-04T01:15:42.825Z,83
2016-08-04T01:15:54.072Z,83
2016-08-04T01:16:05.319Z,82.8
2016-08-04T01:16:16.571Z,82.8
2016-08-04T01:16:27.813Z,82.8
2016-08-04T01:16:39.054Z,83
2016-08-04T01:16:50.299Z,83
2016-08-04T01:17:01.534Z,82.9
2016-08-04T01:17:12.769Z,83.3
2016-08-04T01:17:24.014Z,83.2
2016-08-04T01:17:35.261Z,82.9
2016-08-04T01:17:46.506Z,83.2
2016-08-04T01:17:57.741Z,82.8
2016-08-04T01:18:08.977Z,82.8
2016-08-04T01:18:20.219Z,83.1
2016-08-04T01:18:30.743Z,83
2016-08-04T01:18:41.980Z,82.9
2016-08-04T01:18:53.226Z,83.2
2016-08-04T01:19:04.464Z,82.9
2016-08-04T01:19:15.711Z,83
2016-08-04T01:19:26.964Z,82.8
2016-08-04T01:19:38.198Z,82.7
2016-08-04T01:20:01.110Z,82.8
2016-08-04T01:20:12.690Z,82.9
2016-08-04T01:20:25.726Z,83.2
2016-08-04T01:20:36.971Z,83.3
2016-08-04T01:20:48.210Z,83.1
2016-08-04T01:20:59.455Z,82.9
2016-08-04T01:21:09.967Z,82.8
2016-08-04T01:21:21.210Z,82.8
2016-08-04T01:21:32.455Z,83
2016-08-04T01:21:42.971Z,83
2016-08-04T01:21:53.480Z,82.9
2016-08-04T01:22:04.727Z,83.1
2016-08-04T01:22:15.969Z,82.9
2016-08-04T01:22:27.213Z,82.3
2016-08-04T01:22:38.456Z,82.4
2016-08-04T01:22:49.706Z,82.4
2016-08-04T01:23:00.949Z,82.9
2016-08-04T01:23:12.188Z,82.8
2016-08-04T01:23:23.432Z,82.9
2016-08-04T01:23:33.949Z,83.1
2016-08-04T01:23:46.985Z,82.9
2016-08-04T01:23:58.224Z,83
2016-08-04T01:24:09.469Z,82.8
2016-08-04T01:24:20.708Z,82.9
2016-08-04T01:24:31.948Z,82.6
2016-08-04T01:24:43.186Z,82.5
2016-08-04T01:24:54.429Z,82.9
2016-08-04T01:25:04.944Z,82.7
2016-08-04T01:25:16.194Z,82.5
2016-08-04T01:25:26.705Z,82.4
2016-08-04T01:25:37.952Z,82.6
2016-08-04T01:25:49.189Z,82.6
2016-08-04T01:26:00.428Z,82.6
2016-08-04T01:26:11.672Z,82.5
2016-08-04T01:26:22.915Z,82.9
2016-08-04T01:26:34.164Z,82.4
2016-08-04T01:26:45.404Z,82.6
2016-08-04T01:26:56.646Z,82.5
2016-08-04T01:27:07.885Z,82.7
2016-08-04T01:27:18.400Z,82.8
2016-08-04T01:27:29.638Z,82.9
2016-08-04T01:27:40.151Z,82.4
2016-08-04T01:27:51.387Z,82.9
2016-08-04T01:28:02.634Z,82.8
2016-08-04T01:28:13.871Z,82.6
2016-08-04T01:28:25.120Z,82.7
2016-08-04T01:28:36.361Z,82.7
2016-08-04T01:28:47.603Z,82.7
2016-08-04T01:28:58.839Z,82.9
2016-08-04T01:29:10.079Z,82.5
2016-08-04T01:29:20.595Z,82.6
2016-08-04T01:29:31.831Z,82.6
2016-08-04T01:29:42.351Z,82.7
2016-08-04T01:29:53.591Z,82.9
2016-08-04T01:30:04.831Z,82.8
2016-08-04T01:30:15.343Z,82.5
2016-08-04T01:30:26.581Z,82.8
2016-08-04T01:30:37.823Z,82.8
2016-08-04T01:30:49.065Z,82.6
2016-08-04T01:31:00.304Z,82.4
2016-08-04T01:31:11.548Z,82.4
2016-08-04T01:31:22.785Z,82.3
2016-08-04T01:31:34.026Z,82.4
2016-08-04T01:31:45.265Z,82.4
2016-08-04T01:31:55.772Z,82.5
2016-08-04T01:32:07.029Z,82.5
2016-08-04T01:32:18.271Z,82.5
2016-08-04T01:32:28.054Z,82.3
2016-08-04T01:32:39.298Z,82.7
2016-08-04T01:32:50.542Z,82.9
2016-08-04T01:33:01.787Z,82.8
2016-08-04T01:33:13.032Z,82.9
2016-08-04T01:33:24.271Z,82.9
2016-08-04T01:33:35.517Z,82.9
2016-08-04T01:33:46.764Z,82.9
2016-08-04T01:33:58.001Z,82.9
2016-08-04T01:34:09.241Z,82.7
2016-08-04T01:34:20.484Z,82.8
2016-08-04T01:34:31.721Z,82.9
2016-08-04T01:34:42.959Z,82.8
2016-08-04T01:35:05.878Z,82.2
2016-08-04T01:35:16.384Z,82.4
2016-08-04T01:35:27.626Z,82.3
2016-08-04T01:35:38.865Z,82.8
2016-08-04T01:35:50.111Z,82.7
2016-08-04T01:36:01.351Z,82.7
2016-08-04T01:36:12.587Z,82.8
2016-08-04T01:36:23.829Z,82.9
2016-08-04T01:36:35.067Z,82.8
2016-08-04T01:36:46.311Z,82.8
2016-08-04T01:36:56.823Z,82.8
2016-08-04T01:37:08.060Z,82.9
2016-08-04T01:37:19.299Z,82.9
2016-08-04T01:37:30.540Z,82.7
2016-08-04T01:37:41.779Z,82.4
2016-08-04T01:37:53.020Z,82.5
2016-08-04T01:38:03.534Z,82.9
2016-08-04T01:38:14.774Z,82.7
2016-08-04T01:38:25.298Z,82.6
2016-08-04T01:38:36.545Z,82.5
2016-08-04T01:38:48.858Z,82.3
2016-08-04T01:39:00.099Z,82.9
2016-08-04T01:39:11.338Z,82.7
2016-08-04T01:39:22.578Z,82.3
2016-08-04T01:39:33.822Z,82.5
2016-08-04T01:39:44.333Z,82.9
2016-08-04T01:39:55.573Z,82.7
2016-08-04T01:40:06.806Z,82.5
2016-08-04T01:40:18.050Z,82.2
2016-08-04T01:40:29.289Z,83
2016-08-04T01:40:40.533Z,82.6
2016-08-04T01:40:51.041Z,82.5
2016-08-04T01:41:01.555Z,82.4
2016-08-04T01:41:12.791Z,82.5
2016-08-04T01:41:24.037Z,82.6
2016-08-04T01:41:35.279Z,82.6
2016-08-04T01:41:45.791Z,82.8
2016-08-04T01:41:57.033Z,82.4
2016-08-04T01:42:08.272Z,82.9
2016-08-04T01:42:19.512Z,82.8
2016-08-04T01:42:30.017Z,82.8
2016-08-04T01:42:40.531Z,82.5
2016-08-04T01:42:51.778Z,82.4
2016-08-04T01:43:03.016Z,82.9
2016-08-04T01:43:14.258Z,83.1
2016-08-04T01:43:25.496Z,83
2016-08-04T01:43:35.999Z,82.9
2016-08-04T01:43:46.510Z,82.7
2016-08-04T01:43:57.743Z,83
2016-08-04T01:44:08.982Z,83.4
2016-08-04T01:44:20.221Z,82.8
2016-08-04T01:44:31.466Z,82.7
2016-08-04T01:44:42.698Z,82.9
2016-08-04T01:44:53.209Z,83
2016-08-04T01:45:04.450Z,82.9
2016-08-04T01:45:15.697Z,82.9
2016-08-04T01:45:26.937Z,83.1
2016-08-04T01:45:38.183Z,82.8
2016-08-04T01:45:49.421Z,82.9
2016-08-04T01:45:59.935Z,83.1
2016-08-04T01:46:11.181Z,82.8
2016-08-04T01:46:22.421Z,82.8
2016-08-04T01:46:33.661Z,82.7
2016-08-04T01:46:44.912Z,82.9
2016-08-04T01:46:56.148Z,83
2016-08-04T01:47:07.392Z,82.8
2016-08-04T01:47:17.905Z,82.7
2016-08-04T01:47:29.143Z,82.9
2016-08-04T01:47:39.655Z,82.9
2016-08-04T01:47:50.895Z,82.8
2016-08-04T01:48:02.136Z,82.7
2016-08-04T01:48:13.381Z,82.8
2016-08-04T01:48:23.894Z,82.8
2016-08-04T01:48:35.136Z,83.4
2016-08-04T01:48:46.376Z,82.8
2016-08-04T01:48:57.620Z,83.1
2016-08-04T01:49:09.925Z,82.8
2016-08-04T01:49:21.162Z,82.9
2016-08-04T01:49:31.675Z,82.9
2016-08-04T01:49:42.928Z,83
2016-08-04T01:49:54.169Z,83.1
2016-08-04T01:50:14.836Z,83.3
2016-08-04T01:50:26.093Z,82.9
2016-08-04T01:50:37.331Z,82.9
2016-08-04T01:50:48.574Z,83.1
2016-08-04T01:50:59.084Z,82.7
2016-08-04T01:51:10.328Z,82.7
2016-08-04T01:51:21.567Z,83.1
2016-08-04T01:51:32.807Z,82.9
2016-08-04T01:51:44.046Z,82.8
2016-08-04T01:51:55.283Z,82.7
2016-08-04T01:52:06.526Z,82.8
2016-08-04T01:52:17.772Z,82.9
2016-08-04T01:52:29.013Z,82.8
2016-08-04T01:52:39.524Z,82.7
2016-08-04T01:52:50.767Z,82.5
2016-08-04T01:53:02.005Z,82.9
2016-08-04T01:53:13.250Z,82.6
2016-08-04T01:53:24.486Z,82.9
2016-08-04T01:53:35.731Z,83
2016-08-04T01:53:46.971Z,82.5
2016-08-04T01:53:58.209Z,82.5
2016-08-04T01:54:09.451Z,82.8
2016-08-04T01:54:20.696Z,83.1
2016-08-04T01:54:31.927Z,82.8
2016-08-04T01:54:43.169Z,83
2016-08-04T01:54:53.683Z,83
2016-08-04T01:55:04.920Z,82.9
2016-08-04T01:55:16.160Z,82.9
2016-08-04T01:55:27.398Z,82.8
2016-08-04T01:55:38.638Z,82.5
2016-08-04T01:55:49.886Z,82.4
2016-08-04T01:56:02.184Z,82.5
2016-08-04T01:56:13.432Z,82.3
2016-08-04T01:56:24.671Z,82.3
2016-08-04T01:56:35.911Z,82.6
2016-08-04T01:56:47.151Z,82.8
2016-08-04T01:56:58.393Z,82.3
2016-08-04T01:57:09.633Z,82.6
2016-08-04T01:57:20.873Z,82.4
2016-08-04T01:57:33.179Z,82.7
2016-08-04T01:57:43.681Z,82.5
2016-08-04T01:57:54.932Z,82.5
2016-08-04T01:58:06.169Z,82.5
2016-08-04T01:58:17.414Z,82.6
2016-08-04T01:58:28.656Z,82.5
2016-08-04T01:58:39.167Z,82.5
2016-08-04T01:58:50.408Z,82.9
2016-08-04T01:59:01.648Z,82.6
2016-08-04T01:59:12.888Z,82.6
2016-08-04T01:59:23.406Z,82.9
2016-08-04T01:59:34.650Z,82.7
2016-08-04T01:59:45.890Z,82.6
2016-08-04T01:59:57.131Z,82.3
2016-08-04T02:00:08.369Z,82.9
2016-08-04T02:00:18.878Z,82.5
2016-08-04T02:00:28.656Z,82.2
2016-08-04T02:00:39.899Z,82.2
2016-08-04T02:00:51.144Z,82.4
2016-08-04T02:01:02.404Z,82.4
2016-08-04T02:01:13.640Z,82.5
2016-08-04T02:01:24.886Z,82.7
2016-08-04T02:01:36.133Z,82.3
2016-08-04T02:01:47.373Z,82.4
2016-08-04T02:01:58.607Z,82.4
2016-08-04T02:02:09.126Z,82.6
2016-08-04T02:02:20.366Z,82.6
2016-08-04T02:02:31.613Z,82.3
2016-08-04T02:02:42.852Z,82.4
2016-08-04T02:02:52.632Z,82.9
2016-08-04T02:03:05.666Z,82.6
2016-08-04T02:03:16.904Z,82.6
2016-08-04T02:03:28.142Z,82.3
2016-08-04T02:03:38.650Z,82.8
2016-08-04T02:03:49.165Z,82.9
2016-08-04T02:04:00.430Z,82.5
2016-08-04T02:04:11.676Z,82.4
2016-08-04T02:04:22.183Z,82.4
2016-08-04T02:04:33.420Z,82.7
2016-08-04T02:04:43.935Z,82.7
2016-08-04T02:04:55.174Z,82.5
2016-08-04T02:05:18.375Z,82.7
2016-08-04T02:05:28.880Z,82.3
2016-08-04T02:05:41.185Z,82.6
2016-08-04T02:05:52.422Z,82.5
2016-08-04T02:06:03.659Z,82.5
2016-08-04T02:06:14.173Z,82.9
2016-08-04T02:06:25.426Z,82.5
2016-08-04T02:06:36.662Z,82.3
2016-08-04T02:06:48.967Z,82.4
2016-08-04T02:07:00.205Z,82.7
2016-08-04T02:07:11.457Z,82.4
2016-08-04T02:07:22.693Z,82.2
2016-08-04T02:07:33.935Z,82.2
2016-08-04T02:07:45.177Z,82.5
2016-08-04T02:07:55.680Z,82.9
2016-08-04T02:08:06.921Z,82.6
2016-08-04T02:08:17.435Z,82.3
2016-08-04T02:08:27.941Z,82.4
2016-08-04T02:08:39.186Z,82.4
2016-08-04T02:08:50.427Z,82.3
2016-08-04T02:09:00.943Z,82.3
2016-08-04T02:09:12.186Z,82.4
2016-08-04T02:09:23.433Z,82.8
2016-08-04T02:09:34.680Z,82.8
2016-08-04T02:09:45.922Z,82.3
2016-08-04T02:09:57.160Z,81.9
2016-08-04T02:10:08.401Z,82.4
2016-08-04T02:10:19.646Z,82.4
2016-08-04T02:10:30.893Z,82.4
2016-08-04T02:10:42.128Z,82.8
2016-08-04T02:10:53.366Z,82.7
2016-08-04T02:11:03.877Z,82.5
2016-08-04T02:11:15.116Z,82.4
2016-08-04T02:11:26.363Z,82.2
2016-08-04T02:11:37.600Z,82.7
2016-08-04T02:11:48.110Z,82.8
2016-08-04T02:11:59.352Z,82.7
2016-08-04T02:12:10.595Z,82.3
2016-08-04T02:12:21.843Z,82.5
2016-08-04T02:12:33.085Z,82.9
2016-08-04T02:12:44.320Z,82.5
2016-08-04T02:12:55.557Z,82.6
2016-08-04T02:13:06.802Z,82.4
2016-08-04T02:13:18.044Z,82.6
2016-08-04T02:13:29.288Z,82.5
2016-08-04T02:13:39.802Z,82.6
2016-08-04T02:13:51.040Z,82.2
2016-08-04T02:14:02.277Z,82.3
2016-08-04T02:14:13.520Z,82.2
2016-08-04T02:14:24.758Z,82.8
2016-08-04T02:14:35.270Z,82.3
2016-08-04T02:14:46.514Z,82.8
2016-08-04T02:14:57.753Z,82.2
2016-08-04T02:15:08.262Z,82.2
2016-08-04T02:15:18.773Z,82.3
2016-08-04T02:15:30.031Z,82.2
2016-08-04T02:15:41.262Z,81.9
2016-08-04T02:15:52.503Z,82.2
2016-08-04T02:16:03.748Z,82.2
2016-08-04T02:16:14.264Z,82.2
2016-08-04T02:16:25.506Z,82.2
2016-08-04T02:16:36.760Z,82.3
2016-08-04T02:16:47.997Z,82.2
2016-08-04T02:16:59.242Z,82.1
2016-08-04T02:17:10.481Z,82.2
2016-08-04T02:17:21.724Z,82.2
2016-08-04T02:17:32.974Z,82.2
2016-08-04T02:17:44.217Z,82.2
2016-08-04T02:17:55.460Z,82.2
2016-08-04T02:18:06.701Z,82.2
2016-08-04T02:18:17.217Z,82.4
2016-08-04T02:18:28.453Z,82.2
2016-08-04T02:18:38.979Z,82.2
2016-08-04T02:18:50.220Z,82.1
2016-08-04T02:19:01.461Z,82.1
2016-08-04T02:19:12.699Z,82.2
2016-08-04T02:19:23.941Z,82.1
2016-08-04T02:19:35.187Z,82.1
2016-08-04T02:19:46.433Z,82.2
2016-08-04T02:19:57.671Z,82.2
2016-08-04T02:20:08.179Z,82.3
2016-08-04T02:20:31.096Z,82.2
2016-08-04T02:20:42.334Z,82.3
2016-08-04T02:20:53.585Z,82.1
2016-08-04T02:21:04.822Z,82.2
2016-08-04T02:21:16.062Z,82.2
2016-08-04T02:21:27.305Z,82
2016-08-04T02:21:38.547Z,82.2
2016-08-04T02:21:49.788Z,82.6
2016-08-04T02:22:01.028Z,82.6
2016-08-04T02:22:11.536Z,82.7
2016-08-04T02:22:22.782Z,82.6
2016-08-04T02:22:34.019Z,82.2
2016-08-04T02:22:45.268Z,82.7
2016-08-04T02:22:56.513Z,82.9
2016-08-04T02:23:07.750Z,82.9
2016-08-04T02:23:18.988Z,82.3
2016-08-04T02:23:30.232Z,82.4
2016-08-04T02:23:41.471Z,82.3
2016-08-04T02:23:52.708Z,82.4
2016-08-04T02:24:03.952Z,82
2016-08-04T02:24:15.195Z,82.1
2016-08-04T02:24:26.433Z,82.2
2016-08-04T02:24:37.679Z,82.3
2016-08-04T02:24:48.923Z,82.2
2016-08-04T02:25:00.177Z,82.1
2016-08-04T02:25:11.413Z,82.3
2016-08-04T02:25:22.659Z,82.3
2016-08-04T02:25:33.897Z,82.2
2016-08-04T02:25:45.142Z,82.2
2016-08-04T02:25:56.379Z,82.2
2016-08-04T02:26:07.618Z,82.2
2016-08-04T02:26:18.860Z,82.2
2016-08-04T02:26:30.101Z,82
2016-08-04T02:26:41.341Z,82
2016-08-04T02:26:52.587Z,82.2
2016-08-04T02:27:03.825Z,82.2
2016-08-04T02:27:14.337Z,82.2
2016-08-04T02:27:25.592Z,82.3
2016-08-04T02:27:36.826Z,82.5
2016-08-04T02:27:48.064Z,82.1
2016-08-04T02:27:58.579Z,82
2016-08-04T02:28:09.816Z,82.1
2016-08-04T02:28:21.054Z,82.3
2016-08-04T02:28:32.301Z,82.1
2016-08-04T02:28:43.543Z,82.4
2016-08-04T02:28:54.785Z,81.9
2016-08-04T02:29:05.306Z,82.2
2016-08-04T02:29:16.543Z,82.2
2016-08-04T02:29:27.782Z,82.2
2016-08-04T02:29:38.292Z,82.4
2016-08-04T02:29:48.798Z,82.2
2016-08-04T02:30:00.041Z,82.1
2016-08-04T02:30:11.282Z,82.2
2016-08-04T02:30:22.526Z,82.1
2016-08-04T02:30:33.762Z,82.1
2016-08-04T02:30:44.999Z,82.4
2016-08-04T02:30:55.513Z,82.3
2016-08-04T02:31:06.753Z,82.3